Time;durP1;ratioP1;P1;durP2;ratioP2;P2;SDS_P1;SDS_P2;PMS_P1;PMS_P2;Temp;Humidity;BMP_temperature;BMP_pressure;BME280_temperature;BME280_humidity;BME280_pressure;Samples;Min_cycle;Max_cycle;Signal;HPM_P1;HPM_P2
2024/04/02 00:00:43;;;;;;;1.30;1.20;;;6.90;99.90;;;;;;484331;245;27623;-73
2024/04/02 00:02:44;;;;;;;1.10;1.10;;;7.00;99.90;;;;;;484352;245;28008;-73
2024/04/02 00:04:45;;;;;;;1.23;1.17;;;7.00;99.90;;;;;;484282;245;27986;-73
2024/04/02 00:06:47;;;;;;;1.60;1.40;;;7.00;99.90;;;;;;484317;245;27957;-73
2024/04/02 00:08:48;;;;;;;1.30;1.20;;;7.10;99.90;;;;;;484357;245;28085;-72
2024/04/02 00:10:49;;;;;;;1.67;1.10;;;7.10;99.90;;;;;;484338;245;28016;-73
2024/04/02 00:12:50;;;;;;;2.67;1.50;;;7.10;99.90;;;;;;484308;245;27961;-73
2024/04/02 00:14:51;;;;;;;1.53;1.17;;;7.20;99.90;;;;;;484287;245;27859;-72
2024/04/02 00:16:53;;;;;;;4.10;1.40;;;7.20;99.90;;;;;;484342;245;27957;-73
2024/04/02 00:18:54;;;;;;;1.97;1.47;;;7.10;99.90;;;;;;484339;245;28454;-73
2024/04/02 00:20:55;;;;;;;1.20;1.20;;;7.10;99.90;;;;;;484341;245;27999;-73
2024/04/02 00:22:56;;;;;;;1.27;1.17;;;7.10;99.90;;;;;;484303;245;28247;-73
2024/04/02 00:24:58;;;;;;;1.27;1.17;;;7.10;99.90;;;;;;484296;245;28463;-74
2024/04/02 00:26:59;;;;;;;3.27;1.30;;;7.00;99.90;;;;;;484328;245;28572;-74
2024/04/02 00:29:00;;;;;;;1.50;1.40;;;7.00;99.90;;;;;;484333;245;28420;-72
2024/04/02 00:31:01;;;;;;;1.30;1.20;;;7.00;99.90;;;;;;484307;245;28490;-73
2024/04/02 00:33:03;;;;;;;4.20;1.37;;;7.00;99.90;;;;;;484283;245;28405;-73
2024/04/02 00:35:04;;;;;;;1.40;1.30;;;7.00;99.90;;;;;;484315;245;28299;-73
2024/04/02 00:37:05;;;;;;;1.90;1.50;;;7.00;99.90;;;;;;484343;245;28070;-73
2024/04/02 00:39:06;;;;;;;1.00;1.00;;;7.10;99.90;;;;;;484335;245;27944;-73
2024/04/02 00:41:08;;;;;;;2.50;1.40;;;7.10;99.90;;;;;;484329;245;27989;-73
2024/04/02 00:43:09;;;;;;;1.20;1.20;;;7.20;99.90;;;;;;484310;245;28028;-73
2024/04/02 00:45:10;;;;;;;1.40;1.30;;;7.20;99.90;;;;;;484292;245;27575;-73
2024/04/02 00:47:11;;;;;;;3.10;1.50;;;7.20;99.90;;;;;;484338;245;28168;-73
2024/04/02 00:49:13;;;;;;;1.30;1.00;;;7.30;99.90;;;;;;484316;245;27557;-73
2024/04/02 00:51:14;;;;;;;1.60;1.50;;;7.30;99.90;;;;;;484318;245;27988;-73
2024/04/02 00:53:15;;;;;;;1.37;1.27;;;7.40;99.90;;;;;;484324;245;28069;-74
2024/04/02 00:55:16;;;;;;;2.10;1.60;;;7.40;99.90;;;;;;484377;245;27953;-73
2024/04/02 00:57:18;;;;;;;1.80;1.30;;;7.40;99.90;;;;;;484363;245;27826;-73
2024/04/02 00:59:19;;;;;;;1.43;1.30;;;7.40;99.90;;;;;;484362;245;28379;-73
2024/04/02 01:01:20;;;;;;;1.57;1.47;;;7.40;99.90;;;;;;484351;245;28456;-73
2024/04/02 01:03:21;;;;;;;4.07;1.50;;;7.30;99.90;;;;;;484374;245;28129;-75
2024/04/02 01:05:23;;;;;;;2.93;1.60;;;7.30;99.90;;;;;;484385;245;28416;-73
2024/04/02 01:07:24;;;;;;;3.83;1.73;;;7.40;99.90;;;;;;484350;245;28473;-73
2024/04/02 01:09:25;;;;;;;1.30;1.20;;;7.40;99.90;;;;;;484330;245;28026;-73
2024/04/02 01:11:26;;;;;;;1.70;1.10;;;7.40;99.90;;;;;;484349;245;28181;-73
2024/04/02 01:13:28;;;;;;;1.70;1.40;;;7.40;99.90;;;;;;484360;245;28086;-74
2024/04/02 01:15:29;;;;;;;1.10;1.10;;;7.40;99.90;;;;;;484351;245;28025;-73
2024/04/02 01:17:30;;;;;;;2.77;1.30;;;7.40;99.90;;;;;;484325;245;27934;-73
2024/04/02 01:19:31;;;;;;;2.40;1.17;;;7.40;99.90;;;;;;484322;245;28047;-73
2024/04/02 01:21:33;;;;;;;4.07;1.47;;;7.40;99.90;;;;;;484357;245;28047;-72
2024/04/02 01:23:34;;;;;;;1.30;1.20;;;7.40;99.90;;;;;;484360;245;28364;-75
2024/04/02 01:25:35;;;;;;;1.60;1.47;;;7.40;99.90;;;;;;484333;245;27988;-73
2024/04/02 01:27:36;;;;;;;4.50;1.10;;;7.50;99.90;;;;;;484341;245;27941;-73
2024/04/02 01:29:38;;;;;;;1.40;1.30;;;7.50;99.90;;;;;;484359;245;27970;-74
2024/04/02 01:31:39;;;;;;;1.20;1.20;;;7.60;99.90;;;;;;484345;245;28175;-73
2024/04/02 01:33:40;;;;;;;2.50;1.43;;;7.60;99.90;;;;;;484341;245;27995;-73
2024/04/02 01:35:41;;;;;;;1.70;1.23;;;7.60;99.90;;;;;;484336;245;28017;-73
2024/04/02 01:37:43;;;;;;;2.00;1.07;;;7.60;99.90;;;;;;484340;245;27831;-73
2024/04/02 01:39:44;;;;;;;3.17;1.20;;;7.60;99.90;;;;;;484371;245;27989;-75
2024/04/02 01:41:45;;;;;;;1.20;1.10;;;7.60;99.90;;;;;;484374;245;28477;-73
2024/04/02 01:43:46;;;;;;;1.50;1.40;;;7.60;99.90;;;;;;484322;245;27998;-73
2024/04/02 01:45:48;;;;;;;3.07;1.73;;;7.60;99.90;;;;;;484309;245;28506;-72
2024/04/02 01:47:49;;;;;;;1.63;1.53;;;7.60;99.90;;;;;;484326;245;28541;-73
2024/04/02 01:49:50;;;;;;;1.60;1.50;;;7.50;99.90;;;;;;484372;245;27939;-74
2024/04/02 01:51:51;;;;;;;1.30;1.20;;;7.50;99.90;;;;;;484330;245;27779;-73
2024/04/02 01:53:53;;;;;;;2.07;1.47;;;7.60;99.90;;;;;;484296;245;27900;-73
2024/04/02 01:55:54;;;;;;;2.10;1.20;;;7.60;99.90;;;;;;484335;245;27667;-73
2024/04/02 01:57:55;;;;;;;2.07;1.30;;;7.60;99.90;;;;;;484323;245;27939;-73
2024/04/02 01:59:56;;;;;;;1.70;1.27;;;7.50;99.90;;;;;;484316;245;28098;-73
2024/04/02 02:01:58;;;;;;;1.67;1.30;;;7.50;99.90;;;;;;484298;245;27956;-73
2024/04/02 02:03:59;;;;;;;4.10;1.40;;;7.50;99.90;;;;;;484340;245;27986;-73
2024/04/02 02:06:00;;;;;;;1.70;1.60;;;7.50;99.90;;;;;;484338;245;27727;-74
2024/04/02 02:08:01;;;;;;;1.57;1.47;;;7.50;99.90;;;;;;484365;245;28013;-73
2024/04/02 02:10:03;;;;;;;1.40;1.30;;;7.50;99.90;;;;;;484365;245;28192;-73
2024/04/02 02:12:04;;;;;;;1.43;1.33;;;7.40;99.90;;;;;;484328;245;27458;-73
2024/04/02 02:14:05;;;;;;;4.93;1.63;;;7.40;99.90;;;;;;484307;245;28424;-73
2024/04/02 02:16:06;;;;;;;3.03;1.27;;;7.40;99.90;;;;;;484336;245;29368;-75
2024/04/02 02:18:08;;;;;;;1.60;1.50;;;7.50;99.90;;;;;;484348;245;28383;-73
2024/04/02 02:20:09;;;;;;;2.33;1.50;;;7.40;99.90;;;;;;484353;245;28417;-73
2024/04/02 02:22:10;;;;;;;1.60;1.50;;;7.40;99.90;;;;;;484341;245;28436;-73
2024/04/02 02:24:11;;;;;;;3.13;1.73;;;7.40;99.90;;;;;;484328;245;27972;-73
2024/04/02 02:26:13;;;;;;;2.00;1.30;;;7.40;99.90;;;;;;484385;245;27808;-74
2024/04/02 02:28:14;;;;;;;1.70;1.60;;;7.40;99.90;;;;;;484334;245;27898;-73
2024/04/02 02:30:15;;;;;;;1.30;1.20;;;7.40;99.90;;;;;;484369;245;27510;-73
2024/04/02 02:32:16;;;;;;;2.20;1.53;;;7.40;99.90;;;;;;484325;245;27784;-72
2024/04/02 02:34:18;;;;;;;2.87;1.43;;;7.40;99.90;;;;;;484349;245;28054;-73
2024/04/02 02:36:19;;;;;;;2.03;1.40;;;7.50;99.90;;;;;;484384;245;28001;-73
2024/04/02 02:38:20;;;;;;;3.17;1.60;;;7.50;99.90;;;;;;484367;245;27919;-73
2024/04/02 02:40:21;;;;;;;1.60;1.30;;;7.50;99.90;;;;;;484365;245;28061;-73
2024/04/02 02:42:26;;;;;;;4.40;1.50;;;7.40;99.90;;;;;;484334;245;28046;-73
2024/04/02 02:44:24;;;;;;;3.70;1.40;;;7.40;99.90;;;;;;484222;245;27937;-73
2024/04/02 02:46:25;;;;;;;3.73;1.33;;;7.40;99.90;;;;;;484345;245;27871;-73
2024/04/02 02:48:26;;;;;;;2.30;1.57;;;7.40;99.90;;;;;;484358;245;28063;-73
2024/04/02 02:50:27;;;;;;;1.40;1.30;;;7.40;99.90;;;;;;484311;245;28109;-73
2024/04/02 02:52:29;;;;;;;3.37;1.50;;;7.40;99.90;;;;;;484356;245;28734;-73
2024/04/02 02:54:30;;;;;;;1.30;1.20;;;7.40;99.90;;;;;;484351;245;28277;-73
2024/04/02 02:56:31;;;;;;;3.57;1.20;;;7.40;99.90;;;;;;484346;245;28292;-73
2024/04/02 02:58:32;;;;;;;4.47;1.10;;;7.40;99.90;;;;;;484357;245;28410;-73
2024/04/02 03:00:34;;;;;;;1.57;1.43;;;7.40;99.90;;;;;;484350;245;28429;-73
2024/04/02 03:02:35;;;;;;;1.80;1.50;;;7.40;99.90;;;;;;484355;245;28401;-73
2024/04/02 03:04:36;;;;;;;2.30;1.30;;;7.40;99.90;;;;;;484346;245;28213;-72
2024/04/02 03:06:37;;;;;;;3.93;1.33;;;7.40;99.90;;;;;;484350;245;27854;-73
2024/04/02 03:08:39;;;;;;;1.53;1.40;;;7.40;99.90;;;;;;484360;245;27911;-73
2024/04/02 03:10:40;;;;;;;1.50;1.40;;;7.40;99.90;;;;;;484366;245;27973;-73
2024/04/02 03:12:41;;;;;;;3.10;1.20;;;7.40;99.90;;;;;;484349;245;27779;-74
2024/04/02 03:14:42;;;;;;;1.57;1.30;;;7.40;99.90;;;;;;484361;245;27832;-74
2024/04/02 03:16:44;;;;;;;1.97;1.50;;;7.40;99.90;;;;;;484342;245;27673;-73
2024/04/02 03:18:45;;;;;;;2.27;1.47;;;7.40;99.90;;;;;;484353;245;27998;-73
2024/04/02 03:20:46;;;;;;;1.10;1.10;;;7.40;99.90;;;;;;484372;245;27933;-72
2024/04/02 03:22:47;;;;;;;1.87;1.30;;;7.40;99.90;;;;;;484346;245;27736;-73
2024/04/02 03:24:49;;;;;;;2.90;1.53;;;7.40;99.90;;;;;;484328;245;27819;-73
2024/04/02 03:26:50;;;;;;;2.80;1.40;;;7.40;99.90;;;;;;484305;245;27759;-73
2024/04/02 03:28:51;;;;;;;2.20;1.50;;;7.40;99.90;;;;;;484351;245;28052;-73
2024/04/02 03:30:52;;;;;;;2.80;1.30;;;7.40;99.90;;;;;;484369;245;28054;-73
2024/04/02 03:32:54;;;;;;;1.53;1.37;;;7.40;99.90;;;;;;484382;245;28331;-73
2024/04/02 03:34:55;;;;;;;5.13;1.30;;;7.40;99.90;;;;;;484346;245;28578;-73
2024/04/02 03:36:56;;;;;;;3.93;1.80;;;7.40;99.90;;;;;;484336;245;28596;-73
2024/04/02 03:38:57;;;;;;;1.80;1.40;;;7.40;99.90;;;;;;484362;245;28432;-74
2024/04/02 03:40:59;;;;;;;2.40;1.40;;;7.40;99.90;;;;;;484349;245;28492;-73
2024/04/02 03:43:00;;;;;;;6.10;1.40;;;7.40;99.90;;;;;;484345;245;27618;-73
2024/04/02 03:45:01;;;;;;;1.53;1.27;;;7.40;99.90;;;;;;484331;245;27948;-73
2024/04/02 03:47:02;;;;;;;2.00;1.30;;;7.40;99.90;;;;;;484336;245;28113;-73
2024/04/02 03:49:04;;;;;;;1.10;1.10;;;7.40;99.90;;;;;;484350;245;27982;-74
2024/04/02 03:51:06;;;;;;;2.07;1.50;;;7.40;99.90;;;;;;484327;245;28346;-73
2024/04/02 03:53:07;;;;;;;1.53;1.20;;;7.40;99.90;;;;;;484309;245;28025;-73
2024/04/02 03:55:08;;;;;;;1.33;1.20;;;7.40;99.90;;;;;;484321;245;28062;-72
2024/04/02 03:57:10;;;;;;;1.30;1.20;;;7.50;99.90;;;;;;484339;245;27930;-72
2024/04/02 03:59:11;;;;;;;1.67;1.40;;;7.50;99.90;;;;;;484316;245;27966;-72
2024/04/02 04:01:12;;;;;;;2.37;1.70;;;7.50;99.90;;;;;;484350;245;28386;-74
2024/04/02 04:03:14;;;;;;;2.97;1.43;;;7.50;99.90;;;;;;484336;245;28418;-73
2024/04/02 04:05:15;;;;;;;2.00;1.53;;;7.40;99.90;;;;;;484290;245;28540;-73
2024/04/02 04:07:18;;;;;;;1.87;1.10;;;7.40;99.90;;;;;;484351;245;28466;-73
2024/04/02 04:09:17;;;;;;;2.20;1.30;;;7.40;99.90;;;;;;484185;245;28486;-73
2024/04/02 04:11:18;;;;;;;2.70;1.23;;;7.40;99.90;;;;;;484331;245;28088;-73
2024/04/02 04:13:20;;;;;;;2.63;1.20;;;7.40;99.90;;;;;;484331;245;27932;-73
2024/04/02 04:15:21;;;;;;;5.33;1.50;;;7.50;99.90;;;;;;484294;242;27896;-73
2024/04/02 04:17:22;;;;;;;2.30;1.40;;;7.50;99.90;;;;;;484386;245;27960;-73
2024/04/02 04:19:23;;;;;;;1.97;1.50;;;7.50;99.90;;;;;;484358;245;27919;-73
2024/04/02 04:21:25;;;;;;;1.70;1.30;;;7.50;99.90;;;;;;484330;245;28175;-73
2024/04/02 04:23:26;;;;;;;1.43;1.33;;;7.50;99.90;;;;;;484330;245;27990;-73
2024/04/02 04:25:27;;;;;;;5.07;1.60;;;7.50;99.90;;;;;;484345;245;28052;-73
2024/04/02 04:27:47;;;;;;;2.07;1.43;;;7.50;99.90;;;;;;484345;245;28074;-74
2024/04/02 04:29:33;;;;;;;3.40;1.73;;;7.50;99.90;;;;;;483537;245;27658;-73
2024/04/02 04:31:34;;;;;;;4.27;1.60;;;7.40;99.90;;;;;;484353;245;27572;-73
2024/04/02 04:33:35;;;;;;;2.20;1.30;;;7.40;99.90;;;;;;484340;245;27673;-73
2024/04/02 04:35:36;;;;;;;3.03;1.50;;;7.40;99.90;;;;;;484316;245;28161;-75
2024/04/02 04:37:38;;;;;;;3.73;1.40;;;7.40;99.90;;;;;;484379;245;27830;-73
2024/04/02 04:39:39;;;;;;;1.70;1.50;;;7.30;99.90;;;;;;484371;245;27986;-73
2024/04/02 04:41:40;;;;;;;1.60;1.40;;;7.30;99.90;;;;;;484244;245;28083;-73
2024/04/02 04:43:41;;;;;;;1.80;1.57;;;7.30;99.90;;;;;;484328;245;27940;-73
2024/04/02 04:45:43;;;;;;;2.60;1.30;;;7.30;99.90;;;;;;484344;245;27966;-74
2024/04/02 04:47:44;;;;;;;3.03;1.60;;;7.30;99.90;;;;;;484364;245;27750;-73
2024/04/02 04:49:45;;;;;;;3.40;1.63;;;7.20;99.90;;;;;;484350;245;28257;-73
2024/04/02 04:51:46;;;;;;;1.67;1.40;;;7.20;99.90;;;;;;484337;245;28018;-73
2024/04/02 04:53:48;;;;;;;1.73;1.30;;;7.20;99.90;;;;;;484365;245;27909;-72
2024/04/02 04:55:49;;;;;;;2.87;1.57;;;7.20;99.90;;;;;;484371;245;28009;-74
2024/04/02 04:57:51;;;;;;;2.20;1.20;;;7.20;99.90;;;;;;484336;245;28169;-73
2024/04/02 04:59:51;;;;;;;2.67;1.20;;;7.20;99.90;;;;;;484310;245;28344;-73
2024/04/02 05:01:53;;;;;;;1.60;1.50;;;7.20;99.90;;;;;;484351;245;28432;-73
2024/04/02 05:03:54;;;;;;;2.47;1.40;;;7.30;99.90;;;;;;484351;245;28355;-73
2024/04/02 05:05:55;;;;;;;1.47;1.37;;;7.30;99.90;;;;;;484345;245;28401;-73
2024/04/02 05:07:56;;;;;;;2.30;1.30;;;7.20;99.90;;;;;;484317;245;28325;-74
2024/04/02 05:09:58;;;;;;;2.70;1.30;;;7.20;99.90;;;;;;484302;245;27505;-73
2024/04/02 05:11:59;;;;;;;1.80;1.20;;;7.20;99.90;;;;;;484377;245;27980;-73
2024/04/02 05:14:00;;;;;;;1.40;1.30;;;7.20;99.90;;;;;;484346;245;27581;-73
2024/04/02 05:16:04;;;;;;;1.87;1.40;;;7.20;99.90;;;;;;484290;245;27636;-74
2024/04/02 05:18:03;;;;;;;2.80;1.10;;;7.20;99.90;;;;;;484102;245;27944;-73
2024/04/02 05:20:04;;;;;;;1.00;1.00;;;7.10;99.90;;;;;;484273;245;28063;-73
2024/04/02 05:22:06;;;;;;;1.60;1.50;;;7.20;99.90;;;;;;484357;245;28214;-74
2024/04/02 05:24:06;;;;;;;1.23;1.13;;;7.10;99.90;;;;;;484256;245;28100;-73
2024/04/02 05:26:08;;;;;;;3.80;1.53;;;7.20;99.90;;;;;;484306;245;28125;-73
2024/04/02 05:28:09;;;;;;;3.07;1.40;;;7.20;99.90;;;;;;484288;245;27700;-72
2024/04/02 05:30:12;;;;;;;1.50;1.40;;;7.20;99.90;;;;;;484300;245;27831;-73
2024/04/02 05:32:11;;;;;;;3.33;1.40;;;7.20;99.90;;;;;;484232;245;27864;-74
2024/04/02 05:34:13;;;;;;;4.83;1.73;;;7.20;99.90;;;;;;484340;245;28035;-73
2024/04/02 05:36:14;;;;;;;1.20;1.07;;;7.20;99.90;;;;;;484340;245;28003;-73
2024/04/02 05:38:15;;;;;;;1.30;1.20;;;7.20;99.90;;;;;;484378;245;28629;-73
2024/04/02 05:40:16;;;;;;;2.00;1.40;;;7.20;99.90;;;;;;484391;245;28509;-73
2024/04/02 05:42:18;;;;;;;2.87;1.20;;;7.20;99.90;;;;;;484378;245;28567;-73
2024/04/02 05:44:19;;;;;;;1.60;1.50;;;7.30;99.90;;;;;;484348;245;28408;-73
2024/04/02 05:46:20;;;;;;;2.80;1.43;;;7.30;99.90;;;;;;484347;245;28162;-73
2024/04/02 05:48:21;;;;;;;1.17;1.17;;;7.30;99.90;;;;;;484354;245;27900;-74
2024/04/02 05:50:23;;;;;;;1.60;1.50;;;7.30;99.90;;;;;;484342;245;27598;-73
2024/04/02 05:52:24;;;;;;;4.63;1.30;;;7.30;99.90;;;;;;484325;245;27952;-73
2024/04/02 05:54:25;;;;;;;2.13;1.27;;;7.30;99.90;;;;;;484350;245;27676;-73
2024/04/02 05:56:26;;;;;;;1.97;1.50;;;7.30;99.90;;;;;;484294;245;28033;-73
2024/04/02 05:58:28;;;;;;;1.83;1.50;;;7.30;99.90;;;;;;484317;245;28127;-74
2024/04/02 06:00:30;;;;;;;1.77;1.30;;;7.30;99.90;;;;;;484335;245;27600;-74
2024/04/02 06:02:30;;;;;;;2.17;1.43;;;7.40;99.90;;;;;;484285;245;27865;-73
2024/04/02 06:04:31;;;;;;;9.37;1.90;;;7.40;99.90;;;;;;484345;245;27668;-73
2024/04/02 06:06:33;;;;;;;3.03;1.50;;;7.40;99.90;;;;;;484367;245;28075;-73
2024/04/02 06:08:34;;;;;;;2.67;1.83;;;7.30;99.90;;;;;;484368;245;27618;-74
2024/04/02 06:10:35;;;;;;;5.33;1.93;;;7.30;99.90;;;;;;484344;245;28105;-73
2024/04/02 06:12:39;;;;;;;3.23;1.93;;;7.30;99.90;;;;;;484334;245;28117;-73
2024/04/02 06:14:38;;;;;;;3.83;1.87;;;7.30;99.90;;;;;;484186;245;27867;-73
2024/04/02 06:16:39;;;;;;;7.20;3.20;;;7.30;99.90;;;;;;484327;245;27970;-72
2024/04/02 06:18:40;;;;;;;7.73;2.13;;;7.30;99.90;;;;;;484339;245;28478;-73
2024/04/02 06:20:41;;;;;;;6.63;2.50;;;7.30;99.90;;;;;;484323;245;28348;-73
2024/04/02 06:22:42;;;;;;;12.13;2.57;;;7.40;99.90;;;;;;484323;245;28323;-73
2024/04/02 06:24:44;;;;;;;9.50;2.30;;;7.40;99.90;;;;;;484336;245;28684;-73
2024/04/02 06:26:45;;;;;;;13.57;2.77;;;7.40;99.90;;;;;;484318;245;28033;-73
2024/04/02 06:28:46;;;;;;;5.30;2.47;;;7.40;99.90;;;;;;484364;245;28089;-73
2024/04/02 06:30:47;;;;;;;7.97;2.77;;;7.40;99.90;;;;;;484348;245;27601;-73
2024/04/02 06:32:49;;;;;;;5.50;2.57;;;7.40;99.90;;;;;;484329;245;27853;-74
2024/04/02 06:34:50;;;;;;;7.87;3.00;;;7.50;99.90;;;;;;484366;245;28110;-73
2024/04/02 06:36:51;;;;;;;9.50;2.83;;;7.40;99.90;;;;;;484322;245;27559;-72
2024/04/02 06:38:52;;;;;;;7.10;2.77;;;7.50;99.90;;;;;;484320;245;28013;-73
2024/04/02 06:40:54;;;;;;;6.23;2.63;;;7.60;99.90;;;;;;484312;245;27849;-73
2024/04/02 06:42:56;;;;;;;16.93;3.40;;;7.60;99.90;;;;;;484339;245;27986;-73
2024/04/02 06:44:56;;;;;;;8.03;2.90;;;7.60;99.90;;;;;;484360;245;27878;-73
2024/04/02 06:46:57;;;;;;;9.53;3.40;;;7.60;99.90;;;;;;484368;245;27902;-73
2024/04/02 06:48:59;;;;;;;7.80;3.03;;;7.60;99.90;;;;;;484350;245;27631;-73
2024/04/02 06:51:00;;;;;;;7.37;2.70;;;7.60;99.90;;;;;;484302;245;28057;-73
2024/04/02 06:53:02;;;;;;;7.13;3.07;;;7.60;99.90;;;;;;484330;245;27965;-73
2024/04/02 06:55:02;;;;;;;10.03;2.83;;;7.70;99.90;;;;;;484252;245;28443;-73
2024/04/02 06:57:04;;;;;;;13.37;3.30;;;7.70;99.90;;;;;;484309;245;28381;-73
2024/04/02 06:59:05;;;;;;;8.50;2.90;;;7.70;99.90;;;;;;484333;245;28287;-73
2024/04/02 07:01:06;;;;;;;6.50;2.87;;;7.60;99.90;;;;;;484370;245;28231;-74
2024/04/02 07:03:07;;;;;;;13.87;3.73;;;7.70;99.90;;;;;;484356;245;27956;-72
2024/04/02 07:05:09;;;;;;;9.60;3.70;;;7.70;99.90;;;;;;484335;245;27916;-73
2024/04/02 07:07:10;;;;;;;5.73;2.50;;;7.70;99.90;;;;;;484310;245;28022;-73
2024/04/02 07:09:11;;;;;;;12.13;2.67;;;7.70;99.90;;;;;;484335;245;27834;-74
2024/04/02 07:11:12;;;;;;;8.30;3.10;;;7.70;99.90;;;;;;484340;245;27936;-73
2024/04/02 07:13:14;;;;;;;11.87;2.63;;;7.80;99.90;;;;;;484346;245;27717;-73
2024/04/02 07:15:15;;;;;;;13.53;3.33;;;7.90;99.90;;;;;;484317;245;28125;-73
2024/04/02 07:17:16;;;;;;;9.40;2.93;;;8.00;99.90;;;;;;484331;245;28062;-73
2024/04/02 07:19:17;;;;;;;8.67;2.40;;;8.10;99.90;;;;;;484329;245;28072;-73
2024/04/02 07:21:19;;;;;;;5.00;2.20;;;8.30;99.90;;;;;;484317;245;28042;-73
2024/04/02 07:23:20;;;;;;;9.37;2.60;;;8.30;99.90;;;;;;484324;245;27934;-73
2024/04/02 07:25:21;;;;;;;7.10;3.30;;;8.20;99.90;;;;;;484313;245;27854;-73
2024/04/02 07:27:22;;;;;;;14.73;3.20;;;8.20;99.90;;;;;;484327;245;28269;-75
2024/04/02 07:29:24;;;;;;;11.07;2.80;;;8.20;99.90;;;;;;484339;245;28530;-73
2024/04/02 07:31:25;;;;;;;9.43;2.60;;;8.10;99.90;;;;;;484331;245;28469;-74
2024/04/02 07:33:26;;;;;;;9.90;2.47;;;8.20;99.90;;;;;;484309;245;28398;-73
2024/04/02 07:35:27;;;;;;;9.17;2.87;;;8.30;99.90;;;;;;484321;245;27866;-73
2024/04/02 07:37:29;;;;;;;5.60;2.30;;;8.30;99.90;;;;;;484333;245;28046;-73
2024/04/02 07:39:30;;;;;;;13.70;2.40;;;8.40;99.90;;;;;;484338;245;27706;-71
2024/04/02 07:41:31;;;;;;;9.13;2.30;;;8.40;99.90;;;;;;484310;245;28014;-73
2024/04/02 07:43:32;;;;;;;10.23;2.60;;;8.40;99.90;;;;;;484305;245;27595;-72
2024/04/02 07:45:34;;;;;;;6.00;3.20;;;8.30;99.90;;;;;;484344;245;28068;-73
2024/04/02 07:47:35;;;;;;;5.47;2.67;;;8.30;99.90;;;;;;484356;245;28124;-74
2024/04/02 07:49:36;;;;;;;9.43;2.73;;;8.30;99.90;;;;;;484349;245;27833;-72
2024/04/02 07:51:37;;;;;;;3.57;2.00;;;8.40;99.90;;;;;;484344;245;27987;-72
2024/04/02 07:53:39;;;;;;;5.33;2.33;;;8.70;99.90;;;;;;484352;245;28020;-73
2024/04/02 07:55:40;;;;;;;6.77;2.23;;;8.80;99.90;;;;;;484359;245;27705;-73
2024/04/02 07:57:41;;;;;;;13.30;3.03;;;8.60;99.90;;;;;;484345;245;27558;-73
2024/04/02 07:59:43;;;;;;;10.43;2.97;;;8.40;99.90;;;;;;484350;245;27909;-72
2024/04/02 08:01:44;;;;;;;5.37;2.03;;;8.40;99.90;;;;;;484349;245;27986;-72
2024/04/02 08:03:45;;;;;;;10.80;2.73;;;8.30;99.90;;;;;;484371;245;27730;-73
2024/04/02 08:05:46;;;;;;;8.77;2.83;;;8.20;99.90;;;;;;484365;245;28053;-72
2024/04/02 08:07:48;;;;;;;4.93;1.90;;;8.30;99.90;;;;;;484329;245;28012;-72
2024/04/02 08:09:49;;;;;;;9.40;2.30;;;8.50;99.90;;;;;;484335;245;27961;-72
2024/04/02 08:11:50;;;;;;;11.03;2.83;;;8.60;99.90;;;;;;484334;245;27941;-72
2024/04/02 08:13:51;;;;;;;6.63;2.03;;;8.70;99.90;;;;;;484339;245;27985;-73
2024/04/02 08:15:53;;;;;;;11.23;2.63;;;8.70;99.90;;;;;;484315;245;28364;-73
2024/04/02 08:17:54;;;;;;;4.57;2.33;;;8.80;99.90;;;;;;484285;245;28448;-74
2024/04/02 08:19:55;;;;;;;6.07;2.20;;;8.80;99.90;;;;;;484305;245;29033;-73
2024/04/02 08:21:56;;;;;;;11.70;3.20;;;8.80;99.90;;;;;;484332;245;28337;-73
2024/04/02 08:23:58;;;;;;;12.50;2.33;;;8.70;99.90;;;;;;484313;245;28010;-74
2024/04/02 08:26:00;;;;;;;5.07;1.87;;;8.60;99.90;;;;;;484301;245;28075;-72
2024/04/02 08:28:00;;;;;;;10.53;2.70;;;8.70;99.90;;;;;;484196;245;28094;-74
2024/04/02 08:30:05;;;;;;;9.00;3.00;;;8.90;99.90;;;;;;484282;245;28001;-75
2024/04/02 08:32:03;;;;;;;7.40;2.07;;;9.00;99.90;;;;;;484096;245;27943;-73
2024/04/02 08:34:04;;;;;;;6.83;2.47;;;9.10;99.90;;;;;;484354;245;28018;-73
2024/04/02 08:36:05;;;;;;;6.03;2.00;;;9.10;99.90;;;;;;484339;245;27929;-72
2024/04/02 08:38:06;;;;;;;9.70;2.50;;;9.00;99.90;;;;;;484309;245;27782;-72
2024/04/02 08:40:09;;;;;;;7.03;2.20;;;9.20;99.90;;;;;;484342;245;28084;-74
2024/04/02 08:42:09;;;;;;;11.93;2.70;;;9.20;99.90;;;;;;484314;245;27923;-73
2024/04/02 08:44:10;;;;;;;4.63;1.90;;;9.20;99.90;;;;;;484312;245;27997;-73
2024/04/02 08:46:11;;;;;;;5.40;1.90;;;9.20;99.90;;;;;;484312;245;28288;-73
2024/04/02 08:48:13;;;;;;;7.60;2.47;;;9.40;99.90;;;;;;484340;245;28409;-72
2024/04/02 08:50:14;;;;;;;8.53;2.60;;;9.40;99.90;;;;;;484326;245;28455;-73
2024/04/02 08:52:15;;;;;;;9.50;2.30;;;9.60;99.90;;;;;;484299;245;28128;-72
2024/04/02 08:54:16;;;;;;;8.13;2.00;;;9.70;99.90;;;;;;484313;245;28439;-73
2024/04/02 08:56:18;;;;;;;9.83;3.07;;;9.80;99.90;;;;;;484289;245;29110;-73
2024/04/02 08:58:19;;;;;;;10.20;2.83;;;9.80;99.90;;;;;;484285;245;27829;-72
2024/04/02 09:00:20;;;;;;;9.27;2.40;;;9.90;99.90;;;;;;484326;245;28100;-74
2024/04/02 09:02:21;;;;;;;7.60;2.30;;;10.00;99.90;;;;;;484305;245;28033;-73
2024/04/02 09:04:24;;;;;;;6.40;2.20;;;10.00;99.90;;;;;;484330;245;27946;-72
2024/04/02 09:06:24;;;;;;;5.27;2.07;;;10.20;99.90;;;;;;484321;245;28436;-72
2024/04/02 09:08:25;;;;;;;4.40;2.03;;;10.40;99.90;;;;;;484346;242;28092;-72
2024/04/02 09:10:26;;;;;;;10.73;2.43;;;10.50;99.90;;;;;;484348;245;28253;-74
2024/04/02 09:12:28;;;;;;;14.33;2.83;;;10.60;99.90;;;;;;484352;245;28241;-73
2024/04/02 09:14:29;;;;;;;5.40;2.20;;;10.70;99.90;;;;;;484329;245;28318;-73
2024/04/02 09:16:30;;;;;;;6.60;2.40;;;10.60;99.90;;;;;;484355;245;28529;-73
2024/04/02 09:18:37;;;;;;;9.83;2.80;;;10.50;99.90;;;;;;484321;245;28778;-74
2024/04/02 09:20:36;;;;;;;9.03;2.23;;;10.50;99.90;;;;;;484012;245;28661;-73
2024/04/02 09:22:34;;;;;;;5.87;2.20;;;10.50;99.90;;;;;;484075;245;28245;-72
2024/04/02 09:24:35;;;;;;;5.53;2.00;;;10.40;99.90;;;;;;484341;245;28083;-73
2024/04/02 09:26:36;;;;;;;6.87;2.80;;;10.30;99.90;;;;;;484357;245;28372;-73
2024/04/02 09:28:38;;;;;;;5.47;2.03;;;10.00;99.90;;;;;;484324;245;28084;-72
2024/04/02 09:30:39;;;;;;;5.20;1.87;;;9.80;99.90;;;;;;484320;245;28120;-72
2024/04/02 09:32:42;;;;;;;8.47;2.23;;;9.90;99.90;;;;;;484346;245;28200;-72
2024/04/02 09:34:41;;;;;;;8.70;2.27;;;9.90;99.90;;;;;;484254;245;27969;-74
2024/04/02 09:36:43;;;;;;;7.43;2.70;;;9.80;99.90;;;;;;484321;245;28174;-73
2024/04/02 09:38:44;;;;;;;8.43;2.30;;;9.80;99.90;;;;;;484316;245;28030;-73
2024/04/02 09:40:45;;;;;;;7.37;2.03;;;9.90;99.90;;;;;;484320;245;28075;-73
2024/04/02 09:42:49;;;;;;;9.17;2.57;;;9.90;99.90;;;;;;484358;245;27998;-73
2024/04/02 09:44:48;;;;;;;4.70;2.30;;;10.20;99.90;;;;;;484200;245;27875;-73
2024/04/02 09:46:49;;;;;;;5.97;2.10;;;10.40;99.90;;;;;;484330;245;28540;-73
2024/04/02 09:48:50;;;;;;;13.60;3.57;;;10.50;99.90;;;;;;484329;245;28590;-72
2024/04/02 09:50:52;;;;;;;5.50;2.13;;;10.60;99.90;;;;;;484318;245;28634;-72
2024/04/02 09:52:53;;;;;;;4.07;1.83;;;10.40;99.90;;;;;;484337;245;28132;-75
2024/04/02 09:54:54;;;;;;;5.00;1.80;;;10.40;99.90;;;;;;484345;245;28194;-74
2024/04/02 09:56:55;;;;;;;8.93;1.97;;;10.20;99.90;;;;;;484340;245;28124;-74
2024/04/02 09:58:56;;;;;;;7.20;2.00;;;10.20;99.90;;;;;;484321;245;28099;-72
2024/04/02 10:00:58;;;;;;;5.07;2.10;;;10.10;99.90;;;;;;484348;245;28103;-74
2024/04/02 10:02:59;;;;;;;6.53;2.00;;;10.10;99.90;;;;;;484333;245;28074;-73
2024/04/02 10:05:00;;;;;;;6.17;2.40;;;10.10;99.90;;;;;;484333;245;27959;-73
2024/04/02 10:07:01;;;;;;;10.70;2.40;;;10.00;99.90;;;;;;484299;245;28189;-74
2024/04/02 10:09:03;;;;;;;4.60;2.33;;;10.20;99.90;;;;;;484344;245;28871;-72
2024/04/02 10:11:04;;;;;;;9.30;2.10;;;10.30;99.90;;;;;;484356;245;28700;-72
2024/04/02 10:13:08;;;;;;;7.90;2.47;;;10.50;99.90;;;;;;484366;245;28720;-72
2024/04/02 10:15:12;;;;;;;11.57;2.23;;;10.70;99.90;;;;;;484326;245;28230;-75
2024/04/02 10:17:11;;;;;;;6.23;2.03;;;10.90;99.90;;;;;;484164;245;28082;-74
2024/04/02 10:19:12;;;;;;;8.53;2.10;;;11.00;99.90;;;;;;484338;245;28162;-72
2024/04/02 10:21:13;;;;;;;5.70;1.60;;;10.90;99.90;;;;;;484350;245;28318;-72
2024/04/02 10:23:15;;;;;;;7.00;2.00;;;10.70;99.90;;;;;;484336;245;28195;-71
2024/04/02 10:25:16;;;;;;;8.87;1.90;;;10.50;99.90;;;;;;484329;245;28268;-72
2024/04/02 10:27:17;;;;;;;3.97;1.77;;;10.40;99.90;;;;;;484358;245;28744;-75
2024/04/02 10:29:18;;;;;;;5.60;1.93;;;10.20;99.90;;;;;;484341;245;28714;-73
2024/04/02 10:31:19;;;;;;;5.50;1.63;;;10.30;99.90;;;;;;484329;245;28874;-72
2024/04/02 10:33:21;;;;;;;4.73;1.77;;;10.20;99.90;;;;;;484313;245;28073;-72
2024/04/02 10:35:22;;;;;;;6.53;2.13;;;10.40;99.90;;;;;;484322;245;28223;-72
2024/04/02 10:37:23;;;;;;;2.97;1.60;;;10.70;99.90;;;;;;484333;245;27988;-74